createdAt,value
2023-03-21T00:04:51.288Z,50.61
2023-03-21T00:10:01.901Z,49.57
2023-03-21T00:15:10.201Z,51.11
2023-03-21T00:20:15.824Z,51.24
2023-03-21T00:25:19.865Z,51.23
2023-03-21T00:30:23.912Z,50.92
2023-03-21T00:35:57.975Z,51.53
2023-03-21T00:40:52.698Z,49.70
2023-03-21T00:45:56.488Z,50.14
2023-03-21T00:51:01.308Z,51.04
2023-03-21T00:56:05.388Z,52.66
2023-03-21T01:01:09.334Z,50.40
2023-03-21T01:06:19.290Z,50.25
2023-03-21T01:11:24.907Z,50.60
2023-03-21T01:16:28.819Z,50.66
2023-03-21T01:21:34.203Z,51.12
2023-03-21T01:26:38.364Z,51.17
2023-03-21T01:31:42.093Z,52.58
2023-03-21T01:36:47.004Z,51.01
2023-03-21T01:41:54.632Z,51.61
2023-03-21T01:47:17.188Z,51.42
2023-03-21T01:52:36.629Z,50.36
2023-03-21T01:57:58.546Z,51.73
2023-03-21T02:03:16.960Z,50.90
2023-03-21T02:08:39.504Z,51.32
2023-03-21T02:13:47.591Z,52.58
2023-03-21T02:18:57.512Z,50.89
2023-03-21T02:24:29.516Z,52.10
2023-03-21T02:29:49.326Z,51.02
2023-03-21T02:35:06.430Z,49.96
2023-03-21T02:40:13.623Z,51.98
2023-03-21T02:45:19.806Z,51.52
2023-03-21T02:50:34.525Z,51.46
2023-03-21T02:55:42.392Z,50.22
2023-03-21T03:00:47.508Z,50.74
2023-03-21T03:06:01.997Z,50.65
2023-03-21T03:11:18.600Z,51.46
2023-03-21T03:16:30.094Z,50.35
2023-03-21T03:21:40.964Z,51.26
2023-03-21T03:26:49.151Z,49.66
2023-03-21T03:31:54.920Z,50.51
2023-03-21T03:37:00.330Z,53.82
2023-03-21T03:42:21.797Z,52.61
2023-03-21T03:47:47.788Z,53.88
2023-03-21T03:53:07.115Z,54.08
2023-03-21T03:58:23.178Z,51.81
2023-03-21T04:03:32.408Z,53.25
2023-03-21T04:08:44.975Z,50.90
2023-03-21T04:13:50.392Z,53.17
2023-03-21T04:18:59.007Z,51.99
2023-03-21T04:24:02.735Z,52.65
2023-03-21T04:29:08.268Z,52.70
2023-03-21T04:34:40.302Z,52.64
2023-03-21T04:39:46.332Z,52.85
2023-03-21T04:44:51.716Z,52.25
2023-03-21T04:49:55.235Z,51.77
2023-03-21T04:54:58.860Z,51.93
2023-03-21T05:00:07.516Z,52.28
2023-03-21T05:05:13.916Z,51.50
2023-03-21T05:10:17.783Z,50.55
2023-03-21T05:15:22.817Z,51.75
2023-03-21T05:20:26.550Z,50.38
2023-03-21T05:25:35.416Z,52.40
2023-03-21T05:31:02.981Z,50.45
2023-03-21T05:36:07.526Z,50.56
2023-03-21T05:41:11.404Z,49.83
2023-03-21T05:46:16.661Z,51.34
2023-03-21T05:51:20.513Z,51.01
2023-03-21T05:56:24.275Z,50.56
2023-03-21T06:01:33.544Z,50.35
2023-03-21T06:06:48.309Z,51.51
2023-03-21T06:11:53.434Z,50.41
2023-03-21T06:17:18.553Z,49.30
2023-03-21T06:22:27.102Z,49.63
2023-03-21T06:27:30.922Z,49.46
2023-03-21T06:32:36.018Z,49.64
2023-03-21T06:37:49.154Z,49.20
2023-03-21T06:42:53.075Z,48.75
2023-03-21T06:47:58.095Z,50.08
2023-03-21T06:53:09.297Z,49.62
2023-03-21T06:58:32.649Z,48.72
2023-03-21T07:03:39.425Z,48.77
2023-03-21T07:08:43.309Z,48.04
2023-03-21T07:13:48.623Z,47.88
2023-03-21T07:18:54.156Z,48.20
2023-03-21T07:23:57.657Z,47.92
2023-03-21T07:29:01.451Z,48.88
2023-03-21T07:34:06.348Z,48.56
2023-03-21T07:39:09.964Z,46.76
2023-03-21T07:44:13.608Z,47.11
2023-03-21T07:49:18.574Z,46.92
2023-03-21T07:54:23.058Z,48.33
2023-03-21T07:59:26.675Z,48.17
2023-03-21T08:04:32.227Z,47.54
2023-03-21T08:09:36.137Z,49.48
2023-03-21T08:14:39.815Z,48.09
2023-03-21T08:19:45.007Z,46.84
2023-03-21T08:24:48.443Z,47.91
2023-03-21T08:29:51.931Z,46.76
2023-03-21T08:34:57.944Z,46.78
2023-03-21T08:40:01.420Z,47.90
2023-03-21T08:45:05.809Z,47.50
2023-03-21T08:50:13.462Z,46.88
2023-03-21T08:55:17.681Z,46.73
2023-03-21T09:00:22.524Z,45.92
2023-03-21T09:05:28.348Z,47.72
2023-03-21T09:10:31.930Z,47.70
2023-03-21T09:15:35.482Z,47.35
2023-03-21T09:20:40.846Z,45.84
2023-03-21T09:25:47.357Z,45.57
2023-03-21T09:30:51.121Z,44.07
2023-03-21T09:35:57.692Z,44.34
2023-03-21T09:41:07.735Z,44.40
2023-03-21T09:46:16.341Z,44.58
2023-03-21T09:51:23.821Z,43.58
2023-03-21T09:56:27.986Z,45.31
2023-03-21T10:01:34.190Z,44.92
2023-03-21T10:06:41.190Z,42.07
2023-03-21T10:11:46.558Z,42.80
2023-03-21T10:16:51.218Z,42.78
2023-03-21T10:22:02.329Z,44.36
2023-03-21T10:27:06.372Z,43.84
2023-03-21T10:32:11.328Z,43.70
2023-03-21T10:37:16.738Z,45.32
2023-03-21T10:42:23.841Z,46.74
2023-03-21T10:47:28.837Z,45.26
2023-03-21T10:52:34.333Z,45.93
2023-03-21T10:57:38.773Z,47.86
2023-03-21T11:02:43.179Z,46.51
2023-03-21T11:07:48.588Z,46.96
2023-03-21T11:12:51.981Z,48.18
2023-03-21T11:17:55.472Z,48.92
2023-03-21T11:23:01.164Z,49.54
2023-03-21T11:28:07.999Z,49.93
2023-03-21T11:33:13.242Z,48.38
2023-03-21T11:38:28.064Z,48.13
2023-03-21T11:43:32.963Z,48.79
2023-03-21T11:48:40.576Z,47.98
2023-03-21T11:53:50.404Z,49.43
2023-03-21T11:59:10.550Z,48.17
2023-03-21T12:04:34.810Z,49.26
2023-03-21T12:09:42.540Z,49.52
2023-03-21T12:14:56.598Z,48.75
2023-03-21T12:20:11.029Z,48.08
2023-03-21T12:25:18.425Z,48.13
2023-03-21T12:30:33.137Z,47.42
2023-03-21T12:35:44.667Z,49.09
2023-03-21T12:41:01.724Z,48.93
2023-03-21T12:46:07.262Z,50.88
2023-03-21T12:51:14.180Z,51.19
2023-03-21T12:56:22.164Z,51.21
2023-03-21T13:01:26.018Z,49.90
2023-03-21T13:06:30.562Z,49.07
2023-03-21T13:11:36.293Z,48.23
2023-03-21T13:16:42.556Z,48.78
2023-03-21T13:21:52.099Z,48.67
2023-03-21T13:27:04.075Z,50.10
2023-03-21T13:32:10.723Z,50.53
2023-03-21T13:37:17.482Z,50.28
2023-03-21T13:42:31.734Z,51.32
2023-03-21T13:47:42.901Z,51.60
2023-03-21T13:53:25.394Z,51.56
2023-03-21T13:58:39.060Z,51.03
2023-03-21T14:03:43.185Z,51.71
2023-03-21T14:08:48.537Z,50.27
2023-03-21T14:13:54.450Z,50.51
2023-03-21T14:19:01.421Z,49.76
2023-03-21T14:24:06.789Z,49.52
2023-03-21T14:29:25.794Z,50.82
2023-03-21T14:34:33.993Z,48.89
2023-03-21T14:39:37.501Z,49.03
2023-03-21T14:44:54.347Z,51.51
2023-03-21T14:50:00.165Z,50.99
2023-03-21T14:55:12.821Z,51.48
2023-03-21T15:00:22.988Z,49.37
2023-03-21T15:05:28.158Z,49.70
2023-03-21T15:10:32.782Z,49.01
2023-03-21T15:15:38.231Z,49.63
2023-03-21T15:20:42.288Z,49.97
2023-03-21T15:25:46.330Z,48.35
2023-03-21T15:30:52.454Z,49.05
2023-03-21T15:35:57.732Z,50.05
2023-03-21T15:41:32.263Z,49.69
2023-03-21T15:46:43.990Z,47.88
2023-03-21T15:51:49.422Z,49.35
2023-03-21T15:56:55.909Z,47.86
2023-03-21T16:02:01.295Z,46.71
2023-03-21T16:07:17.014Z,47.56
2023-03-21T16:12:20.445Z,46.94
2023-03-21T16:17:29.540Z,47.10
2023-03-21T16:22:34.904Z,46.62
2023-03-21T16:27:38.440Z,47.08
2023-03-21T16:32:43.371Z,47.33
2023-03-21T16:37:48.145Z,47.14
2023-03-21T16:42:51.810Z,48.38
2023-03-21T16:47:56.911Z,48.73
2023-03-21T16:53:03.471Z,47.70
2023-03-21T16:58:07.352Z,48.11
2023-03-21T17:03:18.919Z,50.81
2023-03-21T17:08:22.734Z,48.89
2023-03-21T17:13:26.226Z,49.30
2023-03-21T17:18:31.033Z,48.51
2023-03-21T17:23:34.428Z,48.25
2023-03-21T17:28:37.992Z,47.04
2023-03-21T17:33:43.089Z,46.74
2023-03-21T17:38:46.891Z,46.80
2023-03-21T17:43:51.640Z,48.68
2023-03-21T17:48:56.768Z,48.63
2023-03-21T17:54:00.878Z,49.88
2023-03-21T17:59:09.569Z,50.08
2023-03-21T18:04:16.795Z,50.68
2023-03-21T18:09:21.652Z,50.37
2023-03-21T18:14:28.752Z,49.85
2023-03-21T18:19:38.169Z,50.84
2023-03-21T18:24:41.629Z,50.41
2023-03-21T18:30:22.119Z,50.02
2023-03-21T18:35:13.121Z,49.63
2023-03-21T18:40:21.926Z,48.92
2023-03-21T18:45:26.636Z,50.28
2023-03-21T18:50:31.502Z,48.83
2023-03-21T18:55:45.356Z,49.14
2023-03-21T19:00:51.246Z,47.88
2023-03-21T19:06:00.412Z,48.87
2023-03-21T19:11:06.439Z,49.57
2023-03-21T19:16:11.420Z,49.33
2023-03-21T19:21:17.536Z,50.46
2023-03-21T19:26:21.350Z,50.82
2023-03-21T19:31:25.103Z,49.37
2023-03-21T19:36:30.327Z,49.49
2023-03-21T19:41:34.153Z,49.44
2023-03-21T19:46:37.657Z,48.51
2023-03-21T19:51:42.565Z,49.35
2023-03-21T19:56:47.674Z,48.44
2023-03-21T20:01:56.490Z,49.53
2023-03-21T20:07:03.368Z,48.13
2023-03-21T20:12:07.763Z,49.28
2023-03-21T20:17:11.252Z,47.51
2023-03-21T20:22:24.897Z,47.89
2023-03-21T20:27:36.898Z,47.49
2023-03-21T20:32:41.354Z,47.75
2023-03-21T20:37:49.565Z,48.32
2023-03-21T20:42:55.830Z,47.73
2023-03-21T20:48:00.359Z,46.32
2023-03-21T20:53:07.657Z,47.35
2023-03-21T20:58:36.617Z,47.01
2023-03-21T21:03:39.322Z,46.64
2023-03-21T21:08:45.477Z,46.28
2023-03-21T21:13:49.609Z,46.54
2023-03-21T21:18:53.017Z,46.02
2023-03-21T21:23:58.452Z,46.35
2023-03-21T21:29:01.974Z,46.92
2023-03-21T21:34:05.756Z,47.75
2023-03-21T21:39:10.513Z,47.00
2023-03-21T21:44:13.992Z,46.65
2023-03-21T21:49:17.457Z,47.90
2023-03-21T21:54:22.258Z,47.17
2023-03-21T21:59:25.829Z,47.03
2023-03-21T22:04:30.050Z,47.08
2023-03-21T22:09:34.847Z,47.22
2023-03-21T22:14:38.260Z,47.65
2023-03-21T22:19:42.027Z,47.92
2023-03-21T22:24:47.350Z,47.18
2023-03-21T22:29:50.802Z,47.35
2023-03-21T22:34:54.167Z,46.29
2023-03-21T22:39:58.911Z,46.48
2023-03-21T22:45:02.801Z,46.90
2023-03-21T22:50:07.733Z,47.57
2023-03-21T22:55:14.287Z,47.07
2023-03-21T23:00:20.023Z,48.10
2023-03-21T23:05:23.450Z,49.54
2023-03-21T23:10:28.175Z,48.33
2023-03-21T23:15:31.574Z,47.76
2023-03-21T23:20:35.122Z,47.35
2023-03-21T23:25:42.386Z,46.47
2023-03-21T23:30:46.028Z,46.89
2023-03-21T23:35:49.459Z,46.71
2023-03-21T23:40:54.206Z,46.82
2023-03-21T23:45:59.717Z,47.59
2023-03-21T23:51:03.143Z,47.53
2023-03-21T23:56:13.595Z,46.33
